Time;durP1;ratioP1;P1;durP2;ratioP2;P2;SDS_P1;SDS_P2;PMS_P1;PMS_P2;Temp;Humidity;BMP_temperature;BMP_pressure;BME280_temperature;BME280_humidity;BME280_pressure;Samples;Min_cycle;Max_cycle;Signal;HPM_P1;HPM_P2
2023/05/25 00:00:33;;;;;;;6.93;3.78;;;12.40;99.90;;;;;;5016530;28;20100;-83
2023/05/25 00:03:02;;;;;;;12.73;4.20;;;12.30;99.90;;;;;;5016810;28;20646;-82
2023/05/25 00:05:28;;;;;;;10.02;4.20;;;12.30;99.90;;;;;;5010587;28;20124;-82
2023/05/25 00:07:54;;;;;;;12.82;3.85;;;12.20;99.90;;;;;;5008370;28;20114;-84
2023/05/25 00:10:20;;;;;;;10.35;4.03;;;12.20;99.90;;;;;;5012807;28;20654;-82
2023/05/25 00:12:46;;;;;;;7.43;4.30;;;12.20;99.90;;;;;;5011238;28;20484;-82
2023/05/25 00:15:12;;;;;;;18.60;4.57;;;12.20;99.90;;;;;;5011825;28;20049;-83
2023/05/25 00:17:39;;;;;;;12.82;4.63;;;12.20;99.90;;;;;;5011111;28;20025;-87
2023/05/25 00:20:06;;;;;;;10.88;4.10;;;12.20;99.90;;;;;;5014326;28;20037;-86
2023/05/25 00:22:33;;;;;;;12.20;4.38;;;12.10;99.90;;;;;;5007807;28;20626;-86
2023/05/25 00:24:59;;;;;;;12.70;4.07;;;12.10;99.90;;;;;;5010609;28;20045;-84
2023/05/25 00:27:25;;;;;;;10.90;4.00;;;12.10;99.90;;;;;;5014618;28;20076;-84
2023/05/25 00:29:50;;;;;;;11.18;3.97;;;12.00;99.90;;;;;;5017177;28;20018;-84
2023/05/25 00:32:16;;;;;;;12.65;4.10;;;12.00;99.90;;;;;;5025408;28;20018;-85
2023/05/25 00:34:41;;;;;;;11.25;4.32;;;12.00;99.90;;;;;;5014668;28;20272;-85
2023/05/25 00:37:07;;;;;;;16.73;5.00;;;12.00;99.90;;;;;;5009564;28;20021;-83
2023/05/25 00:39:33;;;;;;;18.35;4.68;;;11.90;99.90;;;;;;5010766;28;20063;-86
2023/05/25 00:42:01;;;;;;;10.63;4.85;;;11.90;99.90;;;;;;5017074;28;20393;-82
2023/05/25 00:44:26;;;;;;;12.02;4.90;;;11.80;99.90;;;;;;5010395;28;20034;-84
2023/05/25 00:46:53;;;;;;;10.65;4.07;;;11.80;99.90;;;;;;5009890;28;20389;-83
2023/05/25 00:49:21;;;;;;;17.27;4.13;;;11.80;99.90;;;;;;5009644;28;20029;-84
2023/05/25 00:51:51;;;;;;;16.90;5.55;;;11.80;99.90;;;;;;5010554;28;20033;-85
2023/05/25 00:54:18;;;;;;;10.23;4.30;;;11.70;99.90;;;;;;5029838;28;20037;-85
2023/05/25 00:56:49;;;;;;;13.15;5.15;;;11.80;99.90;;;;;;5017995;28;20520;-85
2023/05/25 00:59:27;;;;;;;14.80;4.65;;;11.70;99.90;;;;;;5010901;28;20525;-85
2023/05/25 01:01:56;;;;;;;15.15;4.55;;;11.70;99.90;;;;;;5012169;28;20488;-86
2023/05/25 01:04:22;;;;;;;17.60;4.70;;;11.70;99.90;;;;;;5015117;28;20116;-85
2023/05/25 01:06:49;;;;;;;15.90;4.72;;;11.70;99.90;;;;;;5016796;28;20612;-86
2023/05/25 01:09:18;;;;;;;13.50;4.90;;;11.60;99.90;;;;;;5015689;28;20018;-86
2023/05/25 01:11:48;;;;;;;13.85;4.32;;;11.60;99.90;;;;;;5016091;28;20044;-85
2023/05/25 01:14:18;;;;;;;8.57;4.32;;;11.60;99.90;;;;;;5012047;28;20026;-86
2023/05/25 01:16:44;;;;;;;16.83;3.92;;;11.60;99.90;;;;;;5015068;28;20104;-86
2023/05/25 01:19:09;;;;;;;15.02;4.35;;;11.60;99.90;;;;;;5023266;28;20083;-86
2023/05/25 01:22:02;;;;;;;12.15;4.30;;;11.50;99.90;;;;;;5012369;28;20490;-85
2023/05/25 01:24:41;;;;;;;10.30;4.35;;;11.60;99.90;;;;;;5014836;28;20040;-86
2023/05/25 01:27:12;;;;;;;13.18;4.78;;;11.60;99.90;;;;;;5012272;28;20037;-85
2023/05/25 01:29:41;;;;;;;10.82;4.10;;;11.50;99.90;;;;;;5010267;28;20029;-85
2023/05/25 01:32:08;;;;;;;13.98;4.28;;;11.50;99.90;;;;;;5013084;28;20492;-85
2023/05/25 01:34:34;;;;;;;17.27;4.10;;;11.50;99.90;;;;;;5007398;28;20477;-86
2023/05/25 01:37:00;;;;;;;19.70;4.32;;;11.40;99.90;;;;;;5012085;28;20152;-85
2023/05/25 01:39:26;;;;;;;15.05;4.13;;;11.40;99.90;;;;;;5010482;28;20068;-81
2023/05/25 01:41:52;;;;;;;13.27;4.45;;;11.40;99.90;;;;;;5007316;28;20026;-81
2023/05/25 01:44:18;;;;;;;17.80;4.32;;;11.40;99.90;;;;;;5010915;28;20087;-81
2023/05/25 01:46:43;;;;;;;20.45;4.55;;;11.30;99.90;;;;;;5009543;28;20034;-80
2023/05/25 01:49:34;;;;;;;17.13;4.10;;;11.40;99.90;;;;;;5015064;28;20350;-81
2023/05/25 01:52:21;;;;;;;21.50;4.28;;;11.30;99.90;;;;;;5013871;28;20037;-80
2023/05/25 01:54:56;;;;;;;10.55;3.92;;;11.40;99.90;;;;;;5008759;28;20095;-81
2023/05/25 01:57:25;;;;;;;9.48;4.18;;;11.30;99.90;;;;;;5013205;28;20041;-80
2023/05/25 01:59:53;;;;;;;11.88;4.25;;;11.30;99.90;;;;;;5005274;28;20010;-85
2023/05/25 02:02:19;;;;;;;13.18;4.38;;;11.30;99.90;;;;;;5010325;28;20029;-80
2023/05/25 02:04:46;;;;;;;17.55;4.93;;;11.20;99.90;;;;;;5010764;28;20060;-81
2023/05/25 02:07:12;;;;;;;15.25;5.20;;;11.20;99.90;;;;;;5010194;28;20056;-80
2023/05/25 02:09:37;;;;;;;17.30;4.35;;;11.20;99.90;;;;;;5013666;28;20455;-82
2023/05/25 02:12:03;;;;;;;13.02;4.50;;;11.20;99.90;;;;;;5013094;28;20283;-82
2023/05/25 02:14:29;;;;;;;12.77;4.30;;;11.20;99.90;;;;;;5014624;28;20026;-82
2023/05/25 02:16:56;;;;;;;13.75;4.32;;;11.20;99.90;;;;;;5016091;28;20036;-80
2023/05/25 02:19:22;;;;;;;13.82;4.35;;;11.20;99.90;;;;;;5012034;28;20571;-81
2023/05/25 02:21:47;;;;;;;18.00;4.78;;;11.20;99.90;;;;;;5010688;28;20079;-81
2023/05/25 02:24:15;;;;;;;15.77;5.22;;;11.20;99.90;;;;;;5013014;28;20026;-80
2023/05/25 02:26:41;;;;;;;13.25;4.50;;;11.10;99.90;;;;;;5011686;28;20532;-80
2023/05/25 02:29:07;;;;;;;16.75;5.07;;;11.10;99.90;;;;;;5016551;28;20029;-81
2023/05/25 02:31:32;;;;;;;12.70;5.00;;;11.10;99.90;;;;;;5012119;28;20021;-81
2023/05/25 02:33:58;;;;;;;11.25;5.25;;;11.00;99.90;;;;;;5009421;28;20040;-81
2023/05/25 02:36:23;;;;;;;15.63;5.65;;;11.00;99.90;;;;;;5015861;28;20109;-80
2023/05/25 02:38:51;;;;;;;14.60;5.90;;;11.00;99.90;;;;;;5017838;28;20387;-81
2023/05/25 02:41:20;;;;;;;17.13;5.75;;;11.00;99.90;;;;;;5013814;28;20021;-81
2023/05/25 02:43:46;;;;;;;15.70;6.50;;;10.90;99.90;;;;;;5014097;28;20057;-81
2023/05/25 02:46:12;;;;;;;10.85;5.80;;;10.90;99.90;;;;;;5010082;28;20013;-81
2023/05/25 02:48:40;;;;;;;19.63;5.88;;;10.90;99.90;;;;;;5013311;28;20024;-79
2023/05/25 02:51:06;;;;;;;20.23;5.32;;;10.90;99.90;;;;;;5008926;28;20124;-85
2023/05/25 02:53:32;;;;;;;18.45;6.10;;;10.90;99.90;;;;;;5008750;28;20124;-80
2023/05/25 02:55:57;;;;;;;13.93;5.30;;;10.90;99.90;;;;;;5015649;28;20112;-84
2023/05/25 02:58:23;;;;;;;19.33;5.68;;;10.80;99.90;;;;;;5016252;28;20034;-86
2023/05/25 03:00:51;;;;;;;18.85;6.40;;;10.80;99.90;;;;;;5008556;28;20105;-85
2023/05/25 03:03:16;;;;;;;19.65;6.32;;;10.80;99.90;;;;;;5018414;28;20030;-86
2023/05/25 03:05:42;;;;;;;18.50;6.55;;;10.80;99.90;;;;;;5023573;28;20031;-86
2023/05/25 03:08:07;;;;;;;17.10;6.10;;;10.80;99.90;;;;;;5020782;28;20017;-83
2023/05/25 03:10:33;;;;;;;19.73;5.65;;;10.80;99.90;;;;;;5014547;28;20018;-81
2023/05/25 03:13:01;;;;;;;13.98;5.03;;;10.70;99.90;;;;;;5017615;28;20051;-85
2023/05/25 03:15:26;;;;;;;14.23;5.35;;;10.70;99.90;;;;;;5010063;28;20500;-82
2023/05/25 03:17:55;;;;;;;15.77;4.93;;;10.70;99.90;;;;;;5010401;28;20045;-80
2023/05/25 03:20:23;;;;;;;19.58;5.20;;;10.70;99.90;;;;;;5013530;28;20026;-80
2023/05/25 03:22:49;;;;;;;17.95;6.00;;;10.70;99.90;;;;;;5012249;28;20109;-81
2023/05/25 03:25:16;;;;;;;13.38;5.15;;;10.80;99.90;;;;;;5015195;28;20500;-81
2023/05/25 03:27:42;;;;;;;17.30;6.03;;;10.70;99.90;;;;;;5020654;28;20083;-80
2023/05/25 03:30:10;;;;;;;13.32;5.18;;;10.70;99.90;;;;;;5020269;28;20528;-81
2023/05/25 03:32:36;;;;;;;17.92;5.65;;;10.70;99.90;;;;;;5012911;28;20103;-80
2023/05/25 03:37:31;;;;;;;14.35;5.30;;;10.60;99.90;;;;;;5147963;22;20057;-82
2023/05/25 03:39:56;;;;;;;13.48;5.80;;;10.60;99.90;;;;;;5009660;28;20852;-80
2023/05/25 03:42:22;;;;;;;16.10;5.40;;;10.60;99.90;;;;;;5013654;28;20056;-80
2023/05/25 03:44:47;;;;;;;10.10;5.75;;;10.50;99.90;;;;;;5012431;28;21159;-81
2023/05/25 03:47:13;;;;;;;18.17;6.07;;;10.60;99.90;;;;;;5015014;28;20099;-80
2023/05/25 03:49:39;;;;;;;13.90;6.03;;;10.50;99.90;;;;;;5014569;28;20446;-80
2023/05/25 03:52:05;;;;;;;23.58;5.72;;;10.60;99.90;;;;;;5013084;28;20025;-84
2023/05/25 03:54:33;;;;;;;20.77;6.22;;;10.60;99.90;;;;;;5018060;28;20203;-85
2023/05/25 03:56:59;;;;;;;22.23;6.63;;;10.60;99.90;;;;;;5013104;28;20104;-85
2023/05/25 03:59:25;;;;;;;14.85;6.25;;;10.60;99.90;;;;;;5015261;28;20116;-85
2023/05/25 04:01:51;;;;;;;16.00;5.78;;;10.60;99.90;;;;;;5013777;28;20021;-84
2023/05/25 04:04:17;;;;;;;12.45;6.00;;;10.70;99.90;;;;;;5016048;28;20091;-85
2023/05/25 04:06:44;;;;;;;22.83;6.75;;;10.70;99.90;;;;;;5014623;28;20501;-85
2023/05/25 04:09:11;;;;;;;16.33;6.25;;;10.70;99.90;;;;;;5013816;28;20588;-84
2023/05/25 04:11:36;;;;;;;18.45;5.93;;;10.70;99.90;;;;;;5016004;28;20044;-84
2023/05/25 04:14:02;;;;;;;13.30;6.07;;;10.70;99.90;;;;;;5015654;28;20029;-84
2023/05/25 04:16:28;;;;;;;19.63;6.22;;;10.70;99.90;;;;;;5016556;28;20335;-84
2023/05/25 04:18:54;;;;;;;15.65;6.18;;;10.70;99.90;;;;;;5016242;28;21004;-85
2023/05/25 04:21:21;;;;;;;20.45;6.50;;;10.70;99.90;;;;;;5015022;28;20457;-84
2023/05/25 04:26:16;;;;;;;16.27;6.57;;;10.80;99.90;;;;;;4968366;28;20047;-80
2023/05/25 04:28:41;;;;;;;19.48;6.18;;;10.80;99.90;;;;;;4971863;28;20045;-81
2023/05/25 04:31:08;;;;;;;20.83;5.80;;;10.80;99.90;;;;;;4972940;28;20758;-81
2023/05/25 04:33:37;;;;;;;16.10;5.90;;;10.90;99.90;;;;;;4975206;28;20022;-82
2023/05/25 04:36:06;;;;;;;14.98;6.22;;;10.90;99.90;;;;;;4987947;28;20053;-80
2023/05/25 04:38:32;;;;;;;25.20;6.63;;;10.90;99.90;;;;;;4975845;28;20610;-81
2023/05/25 04:41:00;;;;;;;26.20;6.65;;;11.00;99.90;;;;;;4971910;28;20014;-82
2023/05/25 04:43:26;;;;;;;18.33;6.50;;;11.10;99.90;;;;;;4989734;28;20550;-80
2023/05/25 04:45:53;;;;;;;17.23;6.35;;;11.20;99.90;;;;;;4978926;28;20038;-81
2023/05/25 04:48:19;;;;;;;21.20;6.75;;;11.20;99.90;;;;;;4974340;28;20218;-80
2023/05/25 04:50:45;;;;;;;10.30;5.65;;;11.30;99.90;;;;;;4977713;28;20376;-80
2023/05/25 04:53:11;;;;;;;17.85;6.15;;;11.40;99.90;;;;;;4989901;28;20038;-81
2023/05/25 04:55:36;;;;;;;19.40;6.35;;;11.40;99.90;;;;;;4974102;28;20015;-81
2023/05/25 04:58:04;;;;;;;17.13;5.57;;;11.50;99.90;;;;;;4975934;28;20104;-80
2023/05/25 05:00:30;;;;;;;16.48;5.90;;;11.50;99.90;;;;;;4989461;28;20386;-80
2023/05/25 05:02:57;;;;;;;22.15;6.65;;;11.50;99.90;;;;;;5131562;22;20117;-84
2023/05/25 05:05:23;;;;;;;18.90;5.97;;;11.50;99.90;;;;;;4991921;28;20462;-85
2023/05/25 05:07:49;;;;;;;14.07;5.68;;;11.70;99.90;;;;;;5005823;28;20045;-85
2023/05/25 05:10:15;;;;;;;19.58;6.07;;;11.70;99.90;;;;;;4993703;28;20024;-84
2023/05/25 05:12:43;;;;;;;18.70;6.53;;;11.80;99.90;;;;;;4993606;28;20039;-86
2023/05/25 05:15:08;;;;;;;16.92;5.85;;;11.90;99.90;;;;;;4997864;28;20063;-85
2023/05/25 05:17:35;;;;;;;20.05;6.57;;;12.00;99.90;;;;;;5020562;28;20033;-85
2023/05/25 05:20:00;;;;;;;13.50;5.20;;;12.10;99.90;;;;;;5032431;28;20022;-86
2023/05/25 05:22:26;;;;;;;20.55;6.10;;;12.10;99.90;;;;;;5011528;28;20156;-85
2023/05/25 05:24:51;;;;;;;18.17;5.93;;;12.10;99.90;;;;;;5006554;28;20127;-85
2023/05/25 05:27:18;;;;;;;13.57;5.22;;;12.30;99.90;;;;;;4992178;28;20323;-85
2023/05/25 05:29:43;;;;;;;13.13;5.00;;;12.20;99.90;;;;;;4994971;28;20029;-85
2023/05/25 05:32:09;;;;;;;17.45;5.65;;;12.30;99.90;;;;;;4986806;28;20476;-81
2023/05/25 05:34:35;;;;;;;16.33;5.50;;;12.40;99.90;;;;;;5007827;28;20809;-79
2023/05/25 05:37:00;;;;;;;18.85;4.90;;;12.50;99.90;;;;;;4996080;28;20026;-85
2023/05/25 05:39:27;;;;;;;16.58;6.43;;;12.50;99.90;;;;;;5013822;28;20030;-85
2023/05/25 05:41:53;;;;;;;14.80;5.53;;;12.60;99.90;;;;;;5001217;28;20465;-83
2023/05/25 05:44:22;;;;;;;8.20;4.88;;;12.70;99.90;;;;;;5036545;28;20040;-83
2023/05/25 05:46:48;;;;;;;12.45;4.47;;;12.80;99.90;;;;;;5036119;28;20029;-81
2023/05/25 05:49:14;;;;;;;20.35;5.30;;;12.80;99.90;;;;;;5014854;28;20029;-82
2023/05/25 05:51:39;;;;;;;10.25;4.70;;;12.90;99.90;;;;;;5015006;28;20045;-83
2023/05/25 05:54:08;;;;;;;18.40;5.10;;;13.00;99.90;;;;;;4996875;28;20068;-87
2023/05/25 05:56:33;;;;;;;12.48;4.95;;;13.10;99.90;;;;;;4994517;28;20034;-85
2023/05/25 05:58:59;;;;;;;13.85;4.80;;;13.10;99.90;;;;;;5015106;28;20022;-87
2023/05/25 06:01:24;;;;;;;11.00;4.85;;;13.20;99.90;;;;;;5017549;28;20026;-82
2023/05/25 06:03:53;;;;;;;12.55;5.25;;;13.20;99.90;;;;;;5012636;28;20041;-84
2023/05/25 06:06:18;;;;;;;11.52;4.68;;;13.40;99.90;;;;;;5012330;28;20868;-82
2023/05/25 06:08:45;;;;;;;10.35;4.80;;;13.40;99.90;;;;;;5026141;28;20071;-84
2023/05/25 06:11:10;;;;;;;10.88;4.82;;;13.50;99.90;;;;;;5025611;28;20016;-83
2023/05/25 06:13:36;;;;;;;12.40;4.55;;;13.50;99.90;;;;;;5034170;28;20041;-84
2023/05/25 06:16:02;;;;;;;14.55;4.95;;;13.60;99.90;;;;;;5037146;28;20038;-81
2023/05/25 06:18:30;;;;;;;13.05;4.70;;;13.60;99.90;;;;;;5022863;28;20432;-86
2023/05/25 06:20:55;;;;;;;15.10;4.57;;;13.70;99.90;;;;;;5015571;28;20021;-85
2023/05/25 06:23:21;;;;;;;17.38;4.97;;;13.80;99.90;;;;;;5013788;28;20021;-84
2023/05/25 06:25:46;;;;;;;11.13;4.53;;;13.80;99.90;;;;;;5012259;28;20042;-85
2023/05/25 06:28:12;;;;;;;15.15;4.57;;;13.80;99.90;;;;;;5011275;28;20034;-83
2023/05/25 06:30:38;;;;;;;24.08;4.70;;;13.90;99.90;;;;;;5013156;28;20022;-85
2023/05/25 06:33:03;;;;;;;12.93;5.20;;;14.00;99.90;;;;;;5010849;28;20025;-84
2023/05/25 06:35:31;;;;;;;15.55;5.43;;;14.00;99.90;;;;;;4991857;28;20022;-86
2023/05/25 06:37:57;;;;;;;13.30;4.25;;;14.10;99.90;;;;;;5010095;28;20037;-82
2023/05/25 06:40:23;;;;;;;15.20;4.60;;;14.20;99.90;;;;;;5007738;28;20051;-86
2023/05/25 06:42:48;;;;;;;13.05;5.18;;;14.30;99.90;;;;;;4997297;28;20022;-85
2023/05/25 06:45:16;;;;;;;13.35;4.20;;;14.40;99.90;;;;;;4995454;28;20100;-84
2023/05/25 06:47:42;;;;;;;9.43;4.25;;;14.40;99.90;;;;;;4996058;28;20059;-85
2023/05/25 06:50:08;;;;;;;17.10;4.80;;;14.40;99.90;;;;;;4995292;28;20033;-83
2023/05/25 06:52:34;;;;;;;18.88;4.82;;;14.50;99.90;;;;;;5000842;28;20020;-85
2023/05/25 06:55:01;;;;;;;12.35;4.53;;;14.50;99.90;;;;;;5016172;28;20356;-87
2023/05/25 06:57:26;;;;;;;15.32;4.90;;;14.50;99.90;;;;;;5007754;28;20025;-80
2023/05/25 06:59:52;;;;;;;16.83;4.43;;;14.70;99.90;;;;;;4995589;28;20091;-83
2023/05/25 07:02:19;;;;;;;14.15;4.40;;;14.90;99.90;;;;;;5009413;28;20662;-85
2023/05/25 07:04:45;;;;;;;13.00;4.40;;;15.00;99.90;;;;;;5011864;28;20048;-84
2023/05/25 07:07:12;;;;;;;14.68;4.18;;;15.10;99.90;;;;;;5012030;28;20017;-83
2023/05/25 07:09:40;;;;;;;16.27;4.32;;;15.20;99.90;;;;;;4997234;28;20029;-85
2023/05/25 07:12:07;;;;;;;13.10;4.40;;;15.20;99.90;;;;;;5005869;28;20025;-81
2023/05/25 07:14:36;;;;;;;10.50;4.03;;;15.40;99.90;;;;;;5005754;28;20021;-83
2023/05/25 07:17:02;;;;;;;16.95;4.63;;;15.50;99.90;;;;;;5015133;28;20020;-83
2023/05/25 07:19:28;;;;;;;14.20;4.60;;;15.60;99.90;;;;;;5014220;28;20392;-86
2023/05/25 07:21:53;;;;;;;12.35;4.57;;;15.70;99.90;;;;;;4995927;28;20105;-87
2023/05/25 07:24:19;;;;;;;19.40;4.68;;;15.80;99.90;;;;;;5007882;28;20057;-80
2023/05/25 07:26:44;;;;;;;13.18;4.32;;;15.90;99.90;;;;;;4988863;28;20219;-81
2023/05/25 07:29:11;;;;;;;14.00;4.57;;;16.00;99.90;;;;;;4992579;28;20172;-81
2023/05/25 07:31:37;;;;;;;11.13;4.38;;;16.00;99.90;;;;;;5015877;28;20013;-79
2023/05/25 07:34:02;;;;;;;18.58;5.03;;;16.10;99.90;;;;;;5014445;28;20106;-85
2023/05/25 07:36:28;;;;;;;15.48;4.25;;;16.30;99.90;;;;;;4996827;28;20798;-86
2023/05/25 07:38:54;;;;;;;12.88;4.40;;;16.40;99.90;;;;;;4995649;28;20082;-79
2023/05/25 07:41:20;;;;;;;14.13;4.30;;;16.60;99.90;;;;;;5012534;28;20061;-85
2023/05/25 07:43:45;;;;;;;16.75;4.32;;;16.90;99.90;;;;;;5009316;28;20035;-85
2023/05/25 07:46:11;;;;;;;13.25;4.60;;;17.10;99.90;;;;;;5006906;28;20037;-83
2023/05/25 07:48:37;;;;;;;15.00;4.28;;;17.40;99.90;;;;;;5008463;28;20414;-84
2023/05/25 07:51:02;;;;;;;14.68;4.32;;;17.70;99.90;;;;;;5006768;28;20026;-84
2023/05/25 07:53:28;;;;;;;8.20;4.40;;;17.90;99.90;;;;;;5020616;28;20013;-81
2023/05/25 07:55:54;;;;;;;10.82;4.15;;;18.00;99.90;;;;;;5031299;28;20045;-81
2023/05/25 07:58:20;;;;;;;10.55;4.35;;;18.00;99.90;;;;;;5011934;28;20115;-81
2023/05/25 08:00:47;;;;;;;15.68;4.57;;;18.10;99.90;;;;;;5001083;28;20355;-83
2023/05/25 08:03:16;;;;;;;9.65;4.18;;;18.10;99.90;;;;;;5008537;28;20033;-80
2023/05/25 08:05:42;;;;;;;14.70;3.97;;;18.30;99.90;;;;;;4992094;28;20487;-77
2023/05/25 08:08:09;;;;;;;17.85;4.40;;;18.50;99.90;;;;;;5003137;28;20116;-80
2023/05/25 08:10:35;;;;;;;15.15;4.78;;;18.80;99.90;;;;;;5007134;28;20025;-81
2023/05/25 08:13:00;;;;;;;17.48;4.82;;;19.00;99.90;;;;;;5007744;28;20444;-80
2023/05/25 08:15:26;;;;;;;14.15;4.70;;;18.90;99.90;;;;;;5007889;28;20455;-81
2023/05/25 08:17:52;;;;;;;17.30;5.80;;;18.70;99.90;;;;;;5007425;28;20025;-81
2023/05/25 08:20:18;;;;;;;17.73;5.15;;;18.70;99.90;;;;;;5004056;28;20146;-81
2023/05/25 08:22:44;;;;;;;14.57;5.00;;;18.30;99.90;;;;;;5007813;28;20092;-81
2023/05/25 08:25:10;;;;;;;17.25;5.32;;;18.40;99.90;;;;;;4993257;28;20086;-82
2023/05/25 08:27:35;;;;;;;14.45;5.03;;;18.80;99.90;;;;;;5007588;28;20014;-83
2023/05/25 08:30:01;;;;;;;14.80;4.95;;;19.20;99.90;;;;;;5009048;28;20021;-82
2023/05/25 08:32:27;;;;;;;18.92;4.88;;;19.60;99.90;;;;;;5010377;28;20144;-84
2023/05/25 08:34:55;;;;;;;15.20;4.97;;;19.50;99.90;;;;;;4998261;28;20493;-82
2023/05/25 08:37:25;;;;;;;15.40;5.63;;;19.20;99.90;;;;;;4991852;28;20176;-83
2023/05/25 08:42:26;;;;;;;13.98;5.72;;;19.00;99.90;;;;;;5001189;22;21085;-78
2023/05/25 08:44:51;;;;;;;10.63;4.35;;;19.00;99.90;;;;;;5005804;28;20064;-78
2023/05/25 08:47:21;;;;;;;17.20;4.97;;;19.50;99.90;;;;;;5004854;28;20230;-78
2023/05/25 08:49:48;;;;;;;18.25;5.28;;;19.70;99.90;;;;;;5007469;28;20116;-78
2023/05/25 08:52:19;;;;;;;13.65;5.20;;;19.50;99.90;;;;;;5005188;28;20021;-77
2023/05/25 08:54:46;;;;;;;12.40;4.97;;;19.40;99.90;;;;;;5006588;28;20036;-79
2023/05/25 08:57:27;;;;;;;15.90;5.40;;;19.30;99.90;;;;;;5006592;28;20482;-85
2023/05/25 09:00:07;;;;;;;17.15;5.05;;;19.10;99.90;;;;;;5009928;28;20029;-82
2023/05/25 09:02:58;;;;;;;11.80;4.57;;;19.00;99.90;;;;;;5009749;28;20024;-82
2023/05/25 09:05:24;;;;;;;13.35;4.82;;;18.70;99.90;;;;;;5013474;28;20120;-85
2023/05/25 09:07:53;;;;;;;13.57;4.97;;;18.80;99.90;;;;;;5008080;28;20018;-83
2023/05/25 09:10:21;;;;;;;16.77;5.73;;;18.80;99.90;;;;;;5145785;22;20037;-77
2023/05/25 09:12:48;;;;;;;17.65;5.07;;;19.30;99.90;;;;;;4984330;28;20097;-78
2023/05/25 09:15:14;;;;;;;13.30;4.43;;;19.50;99.90;;;;;;4989133;28;20045;-81
2023/05/25 09:17:40;;;;;;;14.88;4.45;;;19.40;99.80;;;;;;4987447;28;20722;-84
2023/05/25 09:20:12;;;;;;;19.23;5.28;;;19.20;99.60;;;;;;4988130;28;20105;-83
2023/05/25 09:22:39;;;;;;;12.93;4.20;;;19.00;99.90;;;;;;4990274;28;20623;-82
2023/05/25 09:25:10;;;;;;;12.65;4.50;;;18.80;99.90;;;;;;4992239;28;20042;-82
2023/05/25 09:27:36;;;;;;;13.75;4.32;;;18.70;99.90;;;;;;5008689;28;20034;-81
2023/05/25 09:30:03;;;;;;;11.00;4.15;;;18.60;99.90;;;;;;5001418;28;20022;-84
2023/05/25 09:32:30;;;;;;;11.60;4.18;;;18.50;99.90;;;;;;4991322;28;20022;-77
2023/05/25 09:35:05;;;;;;;6.65;3.70;;;18.50;99.90;;;;;;4988219;28;20022;-77
2023/05/25 09:37:31;;;;;;;10.80;3.90;;;18.70;99.90;;;;;;4984734;28;20095;-77
2023/05/25 09:39:56;;;;;;;13.55;3.95;;;18.60;99.90;;;;;;4987343;28;20109;-77
2023/05/25 09:42:22;;;;;;;13.27;3.97;;;18.50;99.90;;;;;;4986564;28;20018;-77
2023/05/25 09:44:48;;;;;;;13.50;3.72;;;18.40;99.90;;;;;;4985410;28;20038;-79
2023/05/25 09:47:15;;;;;;;16.48;4.22;;;18.30;99.90;;;;;;4991460;28;20026;-78
2023/05/25 09:49:43;;;;;;;15.25;4.40;;;18.30;99.90;;;;;;4989070;28;20157;-78
2023/05/25 09:52:10;;;;;;;18.52;5.55;;;18.40;99.90;;;;;;4987320;28;20053;-79
2023/05/25 09:54:37;;;;;;;12.30;4.13;;;18.50;99.90;;;;;;4985531;28;20030;-78
2023/05/25 09:57:04;;;;;;;12.80;3.90;;;18.60;99.90;;;;;;4985873;28;20689;-77
2023/05/25 09:59:31;;;;;;;14.15;4.53;;;18.80;99.90;;;;;;4986884;28;20103;-78
2023/05/25 10:01:57;;;;;;;15.63;4.32;;;19.10;99.90;;;;;;5118211;23;20386;-78
2023/05/25 10:04:23;;;;;;;10.98;3.33;;;19.30;99.90;;;;;;4993480;28;20399;-78
2023/05/25 10:06:50;;;;;;;29.65;11.43;;;19.20;99.90;;;;;;4993644;28;20159;-78
2023/05/25 10:09:18;;;;;;;21.40;4.07;;;19.30;99.20;;;;;;4991955;28;20064;-84
2023/05/25 10:11:44;;;;;;;13.98;3.90;;;19.20;99.20;;;;;;5001724;28;21188;-84
2023/05/25 10:14:13;;;;;;;11.75;4.32;;;19.10;99.00;;;;;;4988294;28;20117;-78
2023/05/25 10:16:43;;;;;;;18.38;4.00;;;19.30;99.30;;;;;;5121576;22;20610;-85
2023/05/25 10:19:16;;;;;;;11.68;3.85;;;19.90;98.60;;;;;;4981221;28;20374;-79
2023/05/25 10:21:50;;;;;;;10.90;3.38;;;20.20;97.80;;;;;;4979652;28;20111;-78
2023/05/25 10:24:37;;;;;;;13.90;4.25;;;20.30;96.70;;;;;;4984270;28;20018;-78
2023/05/25 10:27:08;;;;;;;6.95;3.63;;;20.10;96.40;;;;;;4983551;28;20034;-79
2023/05/25 10:29:39;;;;;;;12.23;3.80;;;19.90;96.80;;;;;;4982680;28;20311;-78
2023/05/25 10:32:05;;;;;;;13.18;3.65;;;19.60;97.40;;;;;;4982722;28;20153;-86
2023/05/25 10:34:31;;;;;;;11.48;3.42;;;19.50;97.80;;;;;;4984016;28;20088;-85
2023/05/25 10:36:58;;;;;;;16.55;4.53;;;19.60;97.90;;;;;;4985851;28;20030;-84
2023/05/25 10:39:24;;;;;;;8.55;3.70;;;19.70;97.90;;;;;;4989807;28;20022;-83
2023/05/25 10:41:51;;;;;;;15.93;3.70;;;19.70;98.30;;;;;;4987344;28;20069;-83
2023/05/25 10:44:18;;;;;;;9.15;3.67;;;19.60;97.70;;;;;;4984077;28;20439;-84
2023/05/25 10:46:44;;;;;;;11.25;3.80;;;19.90;97.80;;;;;;4979998;28;20045;-84
2023/05/25 10:49:10;;;;;;;9.95;3.42;;;20.00;96.30;;;;;;4988129;28;20485;-78
2023/05/25 10:51:39;;;;;;;11.88;3.88;;;20.00;95.60;;;;;;4989251;28;20092;-78
2023/05/25 10:54:05;;;;;;;14.27;3.88;;;20.20;95.80;;;;;;4986736;28;20022;-79
2023/05/25 10:56:31;;;;;;;12.45;4.15;;;20.60;95.70;;;;;;4988515;28;20477;-78
2023/05/25 10:58:57;;;;;;;13.98;3.72;;;21.00;95.00;;;;;;4984341;28;20038;-80
2023/05/25 11:01:24;;;;;;;12.82;3.65;;;21.10;95.20;;;;;;4989222;28;20050;-78
2023/05/25 11:04:13;;;;;;;10.20;4.13;;;21.10;94.90;;;;;;4990134;28;20148;-80
2023/05/25 11:06:39;;;;;;;8.40;3.25;;;21.30;93.90;;;;;;4985601;28;20033;-78
2023/05/25 11:09:06;;;;;;;69.00;31.00;;;21.80;93.30;;;;;;4989270;28;20029;-76
2023/05/25 11:11:47;;;;;;;14.10;5.07;;;22.50;91.50;;;;;;4985803;28;20038;-78
2023/05/25 11:14:34;;;;;;;14.60;3.72;;;23.10;91.70;;;;;;4987998;28;20061;-78
2023/05/25 11:17:06;;;;;;;10.48;3.47;;;22.90;87.20;;;;;;4987465;28;20038;-78
2023/05/25 11:19:50;;;;;;;13.52;3.67;;;22.70;88.30;;;;;;4986575;28;20030;-78
2023/05/25 11:22:36;;;;;;;5.97;3.45;;;22.30;88.00;;;;;;4983883;28;20690;-77
2023/05/25 11:25:35;;;;;;;9.68;3.70;;;22.20;89.60;;;;;;4991491;28;20104;-78
2023/05/25 11:28:10;;;;;;;9.68;3.92;;;22.60;90.20;;;;;;4992204;28;20075;-78
2023/05/25 11:30:37;;;;;;;12.32;4.57;;;23.30;87.60;;;;;;4993302;28;20029;-78
2023/05/25 11:33:03;;;;;;;12.60;3.80;;;23.10;87.70;;;;;;4986936;28;20033;-78
2023/05/25 11:35:32;;;;;;;8.95;3.60;;;23.00;87.50;;;;;;4987410;28;20494;-78
2023/05/25 11:37:59;;;;;;;8.45;3.47;;;22.80;86.50;;;;;;4982999;28;20037;-79
2023/05/25 11:40:29;;;;;;;9.15;3.80;;;22.20;86.10;;;;;;4990652;28;20030;-78
2023/05/25 11:42:59;;;;;;;14.07;4.10;;;22.10;87.10;;;;;;4990858;28;20104;-78
2023/05/25 11:45:27;;;;;;;8.10;3.88;;;22.30;87.70;;;;;;4982146;28;20065;-78
2023/05/25 11:47:53;;;;;;;8.05;3.22;;;22.10;87.30;;;;;;4990807;28;20601;-78
2023/05/25 11:50:19;;;;;;;10.70;3.67;;;21.90;86.40;;;;;;4989343;28;20273;-77
2023/05/25 11:52:44;;;;;;;11.63;3.92;;;21.60;88.50;;;;;;4983750;28;20032;-77
2023/05/25 11:55:13;;;;;;;8.98;3.33;;;21.60;89.10;;;;;;4986213;28;20037;-78
2023/05/25 11:57:39;;;;;;;10.18;3.20;;;22.00;88.90;;;;;;4990068;28;20038;-78
2023/05/25 12:00:10;;;;;;;9.88;3.92;;;22.20;85.70;;;;;;4992679;28;20402;-77
2023/05/25 12:02:43;;;;;;;6.85;3.30;;;22.20;86.40;;;;;;4986132;28;20108;-78
2023/05/25 12:05:10;;;;;;;9.93;3.70;;;22.10;86.20;;;;;;4990783;28;20040;-79
2023/05/25 12:07:42;;;;;;;8.32;4.13;;;22.00;86.60;;;;;;4989043;28;20415;-78
2023/05/25 12:10:15;;;;;;;11.13;3.58;;;21.70;86.60;;;;;;4989833;28;20076;-79
2023/05/25 12:12:49;;;;;;;8.50;3.53;;;21.70;89.40;;;;;;4988487;28;20132;-79
2023/05/25 12:15:25;;;;;;;8.82;3.63;;;21.60;90.10;;;;;;4990259;28;20021;-80
2023/05/25 12:17:52;;;;;;;8.52;3.63;;;21.50;90.30;;;;;;4989402;28;20117;-79
2023/05/25 12:20:18;;;;;;;6.60;3.15;;;21.30;89.70;;;;;;4989631;28;20057;-79
2023/05/25 12:22:47;;;;;;;8.35;3.13;;;21.20;90.20;;;;;;4989089;28;20129;-79
2023/05/25 12:25:17;;;;;;;8.30;3.22;;;21.00;88.40;;;;;;4989677;28;20569;-79
2023/05/25 12:27:42;;;;;;;11.30;3.70;;;21.00;88.90;;;;;;4991757;28;20014;-80
2023/05/25 12:30:09;;;;;;;5.47;2.60;;;21.00;88.90;;;;;;4992919;28;20548;-79
2023/05/25 12:32:59;;;;;;;11.93;3.55;;;21.40;87.50;;;;;;4992648;28;20017;-79
2023/05/25 12:35:25;;;;;;;8.23;2.88;;;22.20;85.20;;;;;;4990336;28;20050;-79
2023/05/25 12:38:20;;;;;;;5.03;2.70;;;23.10;85.20;;;;;;4990447;28;20065;-79
2023/05/25 12:40:46;;;;;;;13.32;3.10;;;23.60;82.10;;;;;;4992553;28;20110;-83
2023/05/25 12:43:13;;;;;;;11.18;3.67;;;23.60;81.10;;;;;;4990564;28;20110;-79
2023/05/25 12:45:42;;;;;;;12.50;3.75;;;23.40;80.00;;;;;;4991007;28;20038;-78
2023/05/25 12:48:08;;;;;;;8.80;2.95;;;23.30;80.00;;;;;;4987814;28;20068;-79